Time;durP1;ratioP1;P1;durP2;ratioP2;P2;SDS_P1;SDS_P2;PMS_P1;PMS_P2;Temp;Humidity;BMP_temperature;BMP_pressure;BME280_temperature;BME280_humidity;BME280_pressure;Samples;Min_cycle;Max_cycle;Signal;HPM_P1;HPM_P2
2022/03/10 00:00:20;;;;;;;5.72;3.97;;;;;;;-5.70;54.49;100265.47;4825781;29;20050;-79
2022/03/10 00:02:46;;;;;;;9.07;4.00;;;;;;;-5.62;54.54;100265.47;4825670;29;20054;-79
2022/03/10 00:05:15;;;;;;;7.10;4.05;;;;;;;-5.59;54.18;100265.47;4808911;29;20123;-80
2022/03/10 00:07:41;;;;;;;5.97;3.95;;;;;;;-5.68;53.98;100263.75;4825828;29;20463;-81
2022/03/10 00:10:08;;;;;;;9.32;3.97;;;;;;;-5.69;54.43;100263.72;4825457;29;20065;-80
2022/03/10 00:12:34;;;;;;;7.90;3.95;;;;;;;-5.72;53.95;100263.72;4794286;29;20113;-80
2022/03/10 00:15:04;;;;;;;5.15;3.78;;;;;;;-5.75;54.33;100248.97;4809389;29;20054;-80
2022/03/10 00:17:30;;;;;;;6.47;3.97;;;;;;;-5.69;54.13;100261.13;4809247;29;20058;-81
2022/03/10 00:19:56;;;;;;;7.03;3.90;;;;;;;-5.70;54.32;100260.25;4809234;29;20061;-80
2022/03/10 00:22:22;;;;;;;6.07;3.88;;;;;;;-5.63;54.30;100259.41;4825750;29;20050;-79
2022/03/10 00:24:47;;;;;;;6.20;3.83;;;;;;;-5.56;54.09;100272.44;4825379;29;20087;-80
2022/03/10 00:27:14;;;;;;;6.97;4.18;;;;;;;-5.55;53.81;100280.22;4790796;29;20511;-80
2022/03/10 00:29:39;;;;;;;7.07;3.97;;;;;;;-5.52;53.56;100280.25;4806034;29;20066;-80
2022/03/10 00:32:05;;;;;;;8.63;5.13;;;;;;;-5.46;53.49;100284.56;4806135;29;20057;-80
2022/03/10 00:34:32;;;;;;;7.75;4.63;;;;;;;-5.50;53.72;100278.50;4796037;29;20089;-79
2022/03/10 00:36:58;;;;;;;6.93;3.88;;;;;;;-5.47;53.68;100293.25;4801142;29;20054;-79
2022/03/10 00:39:24;;;;;;;7.75;4.68;;;;;;;-5.46;53.23;100300.19;4815964;29;20065;-80
2022/03/10 00:41:50;;;;;;;11.15;4.70;;;;;;;-5.43;53.58;100306.28;4815520;29;20063;-81
2022/03/10 00:44:17;;;;;;;7.72;4.10;;;;;;;-5.46;53.47;100302.81;4793023;29;20097;-79
2022/03/10 00:46:43;;;;;;;7.90;4.82;;;;;;;-5.54;53.45;100302.81;4808887;29;20108;-80
2022/03/10 00:49:09;;;;;;;9.40;4.55;;;;;;;-5.70;53.18;100304.53;4809623;29;20146;-82
2022/03/10 00:51:35;;;;;;;8.00;3.92;;;;;;;-5.71;53.33;100302.81;4808977;29;20149;-81
2022/03/10 00:54:00;;;;;;;7.55;4.20;;;;;;;-5.74;53.73;100302.78;4807360;29;20055;-81
2022/03/10 00:56:26;;;;;;;7.50;4.00;;;;;;;-5.65;53.52;100309.75;4807518;29;20431;-80
2022/03/10 00:58:52;;;;;;;10.85;4.35;;;;;;;-5.67;53.37;100301.06;4807360;29;20142;-80
2022/03/10 01:01:18;;;;;;;7.45;4.43;;;;;;;-5.58;53.21;100310.63;4806872;29;20062;-79
2022/03/10 01:03:44;;;;;;;7.13;4.80;;;;;;;-5.58;53.20;100315.84;4790777;29;20078;-80
2022/03/10 01:06:09;;;;;;;8.77;4.32;;;;;;;-5.59;53.16;100309.75;4790465;29;20442;-79
2022/03/10 01:08:36;;;;;;;7.00;4.20;;;;;;;-5.59;53.00;100309.75;4806556;29;20058;-80
2022/03/10 01:11:02;;;;;;;8.70;4.72;;;;;;;-5.57;53.17;100312.34;4805453;29;20127;-78
2022/03/10 01:13:28;;;;;;;9.00;4.90;;;;;;;-5.56;53.37;100308.91;4807256;29;20055;-79
2022/03/10 01:15:54;;;;;;;6.55;3.90;;;;;;;-5.59;52.86;100304.53;4804277;29;20157;-79
2022/03/10 01:18:20;;;;;;;6.22;4.28;;;;;;;-5.69;52.91;100303.66;4806964;29;20059;-80
2022/03/10 01:20:45;;;;;;;6.03;3.58;;;;;;;-5.66;53.02;100314.09;4790488;29;20111;-79
2022/03/10 01:23:11;;;;;;;5.93;3.70;;;;;;;-5.72;52.83;100310.59;4806883;29;20099;-80
2022/03/10 01:25:38;;;;;;;5.70;4.03;;;;;;;-5.93;53.18;100308.88;4805873;29;20094;-81
2022/03/10 01:28:05;;;;;;;6.00;4.03;;;;;;;-5.94;53.24;100309.72;4792809;29;20073;-80
2022/03/10 01:30:31;;;;;;;10.27;4.18;;;;;;;-5.99;53.60;100319.25;4778179;29;20488;-79
2022/03/10 01:32:56;;;;;;;9.55;4.43;;;;;;;-6.05;53.68;100306.25;4808647;29;20050;-80
2022/03/10 01:35:23;;;;;;;6.72;3.90;;;;;;;-6.04;53.45;100305.38;4808417;29;20066;-80
2022/03/10 01:37:49;;;;;;;6.22;4.07;;;;;;;-5.99;53.64;100317.53;4824366;29;20058;-79
2022/03/10 01:40:18;;;;;;;9.05;4.32;;;;;;;-5.99;53.66;100317.53;4824257;29;20430;-79
2022/03/10 01:42:45;;;;;;;8.95;6.20;;;;;;;-6.02;53.66;100314.03;4826532;29;20427;-78
2022/03/10 01:45:12;;;;;;;10.77;5.90;;;;;;;-6.07;53.64;100318.38;4779501;29;20428;-79
2022/03/10 01:47:39;;;;;;;8.57;4.00;;;;;;;-6.11;53.70;100326.16;4792830;29;20058;-79
2022/03/10 01:50:06;;;;;;;10.00;4.57;;;;;;;-6.16;53.71;100330.50;4792882;29;20050;-79
2022/03/10 01:52:32;;;;;;;8.38;4.00;;;;;;;-6.20;53.67;100326.16;4823938;29;20500;-80
2022/03/10 01:54:59;;;;;;;8.23;4.25;;;;;;;-6.28;53.57;100324.38;4807947;29;20146;-79
2022/03/10 01:57:25;;;;;;;6.90;3.83;;;;;;;-6.31;53.59;100321.78;4778154;29;20107;-80
2022/03/10 01:59:52;;;;;;;6.53;4.00;;;;;;;-6.34;53.47;100317.41;4824400;29;20062;-80
2022/03/10 02:02:18;;;;;;;5.25;3.83;;;;;;;-6.36;53.54;100320.03;4807546;29;20058;-79
2022/03/10 02:04:44;;;;;;;6.68;4.78;;;;;;;-6.41;53.67;100331.25;4792615;29;20149;-80
2022/03/10 02:10:16;;;;;;;6.90;4.18;;;;;;;-6.50;53.65;100315.63;4807821;29;20578;-81
2022/03/10 02:10:17;;;;;;;9.25;4.20;;;;;;;-6.50;53.57;100318.22;4823999;29;20061;-80
2022/03/10 02:12:48;;;;;;;21.45;4.45;;;;;;;-6.60;53.41;100320.75;4780451;29;20065;-79
2022/03/10 02:18:04;;;;;;;14.18;4.07;;;;;;;-6.74;53.80;100317.22;4807776;29;20046;-78
2022/03/10 02:20:30;;;;;;;22.02;4.85;;;;;;;-6.80;54.00;100319.81;4792628;29;20470;-79
2022/03/10 02:22:57;;;;;;;10.15;4.68;;;;;;;-6.89;54.13;100315.41;4807609;29;20063;-78
2022/03/10 02:25:24;;;;;;;7.47;3.83;;;;;;;-6.88;54.18;100324.09;4792273;29;20563;-79
2022/03/10 02:27:54;;;;;;;8.93;3.97;;;;;;;-6.94;54.02;100322.31;4805208;29;20063;-81
2022/03/10 02:30:21;;;;;;;7.97;4.63;;;;;;;-6.97;54.37;100324.00;4807822;29;20080;-87
2022/03/10 02:32:47;;;;;;;21.65;4.70;;;;;;;-7.03;54.29;100316.16;4809437;29;20158;-82
2022/03/10 02:35:15;;;;;;;18.38;4.82;;;;;;;-7.12;54.24;100304.84;4793006;29;20054;-80
2022/03/10 02:37:41;;;;;;;9.73;5.28;;;;;;;-7.09;54.41;100319.59;4807670;29;20061;-80
2022/03/10 02:40:08;;;;;;;9.50;4.72;;;;;;;-7.14;54.47;100327.38;4792707;29;20059;-80
2022/03/10 02:42:34;;;;;;;8.27;4.22;;;;;;;-7.19;54.40;100331.66;4792462;29;20499;-79
2022/03/10 02:45:01;;;;;;;8.85;4.20;;;;;;;-7.27;54.40;100319.47;4792817;29;20082;-80
2022/03/10 02:47:29;;;;;;;16.35;4.53;;;;;;;-7.28;54.30;100318.59;4808014;29;20085;-79
2022/03/10 02:49:55;;;;;;;8.68;4.75;;;;;;;-7.27;54.27;100325.53;4792811;29;20090;-80
2022/03/10 02:52:22;;;;;;;8.70;4.85;;;;;;;-7.15;55.80;100329.94;4807952;29;20113;-80
2022/03/10 02:54:49;;;;;;;7.47;4.15;;;;;;;-7.13;55.01;100328.25;4812179;29;20071;-83
2022/03/10 02:57:14;;;;;;;12.80;5.10;;;;;;;-7.15;54.61;100336.00;4810688;29;20058;-81
2022/03/10 02:59:41;;;;;;;17.65;8.15;;;;;;;-7.15;54.32;100328.22;4826269;29;20456;-78
2022/03/10 03:02:07;;;;;;;10.07;4.55;;;;;;;-7.16;54.53;100333.41;4825532;29;20069;-80
2022/03/10 03:04:33;;;;;;;18.02;5.13;;;;;;;-7.16;54.55;100336.88;4810765;29;20050;-79
2022/03/10 03:06:59;;;;;;;10.13;5.00;;;;;;;-7.14;54.56;100340.38;4810437;29;20507;-83
2022/03/10 03:09:25;;;;;;;16.60;5.18;;;;;;;-7.13;54.87;100347.28;4810913;29;20077;-83
2022/03/10 03:11:51;;;;;;;29.55;5.45;;;;;;;-7.09;54.78;100351.66;4830423;29;20066;-81
2022/03/10 03:14:17;;;;;;;14.20;5.43;;;;;;;-7.02;54.93;100346.50;4833747;29;20062;-82
2022/03/10 03:16:43;;;;;;;9.73;4.63;;;;;;;-7.02;54.44;100347.38;4839894;29;20065;-81
2022/03/10 03:19:09;;;;;;;7.38;4.70;;;;;;;-6.98;54.66;100343.94;4831521;29;20061;-79
2022/03/10 03:21:35;;;;;;;8.90;5.32;;;;;;;-6.92;54.79;100350.91;4826397;29;20200;-85
2022/03/10 03:24:01;;;;;;;7.60;4.70;;;;;;;-6.84;54.66;100346.63;4819690;29;20491;-80
2022/03/10 03:26:27;;;;;;;12.85;5.18;;;;;;;-6.82;54.41;100339.69;4822430;29;20101;-82
2022/03/10 03:28:53;;;;;;;16.25;4.55;;;;;;;-6.73;54.42;100349.28;4810958;29;20058;-79
2022/03/10 03:31:20;;;;;;;8.60;4.85;;;;;;;-6.66;54.24;100356.25;4826808;29;20061;-82
2022/03/10 03:33:46;;;;;;;8.88;5.28;;;;;;;-6.71;53.97;100347.56;4826182;29;20058;-80
2022/03/10 03:36:12;;;;;;;13.93;5.60;;;;;;;-6.64;53.88;100347.63;4794765;29;20153;-82
2022/03/10 03:38:38;;;;;;;16.90;5.57;;;;;;;-6.61;54.09;100350.25;4809243;29;20445;-82
2022/03/10 03:41:04;;;;;;;9.75;5.20;;;;;;;-6.52;54.00;100348.53;4809485;29;20087;-78
2022/03/10 03:43:30;;;;;;;13.77;4.97;;;;;;;-6.50;54.12;100331.22;4809844;29;20141;-78
2022/03/10 03:45:56;;;;;;;12.93;5.25;;;;;;;-6.45;53.55;100330.38;4795088;29;20206;-80
2022/03/10 03:48:25;;;;;;;16.35;5.93;;;;;;;-6.40;53.77;100322.59;4794648;29;20054;-80
2022/03/10 03:50:53;;;;;;;15.18;5.68;;;;;;;-6.38;53.42;100336.47;4779736;29;20050;-80
2022/03/10 03:53:19;;;;;;;9.82;5.57;;;;;;;-6.32;53.57;100335.63;4794587;29;20434;-82
2022/03/10 03:55:45;;;;;;;12.32;6.13;;;;;;;-6.20;53.49;100341.75;4809526;29;20050;-82
2022/03/10 03:58:11;;;;;;;13.02;6.00;;;;;;;-6.13;53.43;100343.53;4825793;29;20062;-80
2022/03/10 04:00:37;;;;;;;20.13;5.95;;;;;;;-6.04;53.01;100339.22;4809899;29;20069;-81
2022/03/10 04:03:11;;;;;;;13.05;5.38;;;;;;;-5.90;52.67;100348.78;4794621;29;20089;-81
2022/03/10 04:05:38;;;;;;;11.02;5.10;;;;;;;-5.76;52.63;100351.38;4809849;29;20054;-80
2022/03/10 04:08:05;;;;;;;8.45;4.13;;;;;;;-5.71;52.15;100349.69;4809210;29;20543;-81
2022/03/10 04:10:31;;;;;;;16.45;5.78;;;;;;;-5.66;52.13;100355.75;4794205;29;20149;-81
2022/03/10 04:12:58;;;;;;;12.70;5.30;;;;;;;-5.62;51.94;100349.69;4808701;29;20059;-83
2022/03/10 04:15:24;;;;;;;10.15;5.28;;;;;;;-5.66;51.76;100355.75;4809245;29;20046;-82
2022/03/10 04:17:50;;;;;;;13.45;6.32;;;;;;;-5.43;51.84;100358.38;4778860;29;20054;-82
2022/03/10 04:20:16;;;;;;;9.82;4.93;;;;;;;-5.38;51.82;100361.88;4825265;29;20058;-84
2022/03/10 04:22:42;;;;;;;20.83;5.35;;;;;;;-5.38;51.60;100361.00;4824294;29;20061;-83
2022/03/10 04:25:08;;;;;;;7.85;4.45;;;;;;;-5.20;51.44;100371.44;4825531;29;20510;-83
2022/03/10 04:27:35;;;;;;;10.45;5.03;;;;;;;-5.14;50.87;100366.22;4793882;29;20065;-80
2022/03/10 04:30:03;;;;;;;14.95;5.10;;;;;;;-5.02;50.77;100385.34;4809300;29;20069;-79
2022/03/10 04:32:29;;;;;;;9.32;4.82;;;;;;;-4.92;50.78;100379.28;4779092;29;20118;-82
2022/03/10 04:34:55;;;;;;;9.60;4.65;;;;;;;-4.88;50.07;100373.19;4824192;29;20536;-80
2022/03/10 04:37:21;;;;;;;9.05;4.50;;;;;;;-4.90;49.91;100375.78;4825060;29;20058;-81
2022/03/10 04:39:46;;;;;;;11.07;4.80;;;;;;;-4.84;49.74;100377.53;4825195;29;20058;-84
2022/03/10 04:42:12;;;;;;;7.93;4.38;;;;;;;-4.90;49.83;100372.28;4793607;29;20062;-84
2022/03/10 04:44:38;;;;;;;13.32;6.18;;;;;;;-4.75;50.03;100385.31;4825247;29;20486;-82
2022/03/10 04:47:05;;;;;;;9.57;5.28;;;;;;;-4.68;50.02;100381.84;4825313;29;20062;-81
2022/03/10 04:49:30;;;;;;;12.07;5.65;;;;;;;-4.48;50.14;100384.41;4808573;29;20050;-81
2022/03/10 04:51:57;;;;;;;9.57;5.75;;;;;;;-4.34;49.20;100381.75;4824600;29;20496;-83
2022/03/10 04:54:23;;;;;;;15.68;5.65;;;;;;;-4.32;49.19;100379.16;4825099;29;20065;-81
2022/03/10 04:56:49;;;;;;;11.18;7.03;;;;;;;-4.26;48.97;100369.53;4825007;29;20050;-81
2022/03/10 04:59:14;;;;;;;38.75;6.47;;;;;;;-4.15;48.28;100378.22;4825922;29;20085;-82
2022/03/10 05:01:40;;;;;;;11.13;5.60;;;;;;;-4.22;48.20;100392.16;4809896;29;20399;-82
2022/03/10 05:04:06;;;;;;;22.77;5.80;;;;;;;-4.46;47.77;100387.03;4826034;29;20054;-83
2022/03/10 05:06:32;;;;;;;13.80;5.70;;;;;;;-4.34;48.78;100386.97;4808404;29;20087;-83
2022/03/10 05:08:57;;;;;;;9.98;4.60;;;;;;;-4.17;48.54;100387.81;4824727;29;20060;-82
2022/03/10 05:11:23;;;;;;;6.38;4.40;;;;;;;-4.16;48.17;100381.69;4808718;29;20070;-82
2022/03/10 05:13:49;;;;;;;9.00;4.75;;;;;;;-4.00;47.65;100386.88;4808412;29;20085;-83
2022/03/10 05:16:15;;;;;;;41.58;5.60;;;;;;;-3.97;48.07;100371.19;4808179;29;20090;-84
2022/03/10 05:18:41;;;;;;;20.45;5.47;;;;;;;-3.91;47.66;100379.00;4808307;29;20126;-82
2022/03/10 05:21:07;;;;;;;9.57;4.95;;;;;;;-4.13;47.56;100385.19;4808144;29;20066;-81
2022/03/10 05:23:33;;;;;;;10.85;4.80;;;;;;;-3.93;48.23;100396.41;4824727;29;20433;-81
2022/03/10 05:25:59;;;;;;;7.32;4.47;;;;;;;-3.78;47.23;100379.81;4792907;29;20487;-83
2022/03/10 05:28:25;;;;;;;9.80;5.50;;;;;;;-3.58;47.47;100390.13;4808077;29;20140;-82
2022/03/10 05:30:51;;;;;;;9.77;4.78;;;;;;;-3.47;47.00;100386.56;4823417;29;20092;-80
2022/03/10 05:33:16;;;;;;;10.35;5.13;;;;;;;-3.35;46.84;100393.47;4825060;29;20054;-81
2022/03/10 05:35:42;;;;;;;9.98;5.25;;;;;;;-3.46;45.78;100375.25;4793304;29;20065;-82
2022/03/10 05:38:08;;;;;;;9.52;5.30;;;;;;;-3.78;46.32;100393.72;4793016;29;20098;-80
2022/03/10 05:40:34;;;;;;;9.15;5.57;;;;;;;-3.59;47.45;100394.50;4792795;29;20535;-81
2022/03/10 05:43:00;;;;;;;7.35;5.05;;;;;;;-3.42;46.95;100381.34;4792774;29;20054;-82
2022/03/10 05:45:26;;;;;;;8.20;4.25;;;;;;;-3.50;45.90;100398.78;4792797;29;20055;-89
2022/03/10 05:47:54;;;;;;;6.88;4.85;;;;;;;-3.56;46.90;100377.94;4792460;29;20046;-82
2022/03/10 05:50:22;;;;;;;10.40;4.78;;;;;;;-3.39;46.49;100381.28;4792790;29;20062;-82
2022/03/10 05:52:48;;;;;;;10.13;5.57;;;;;;;-3.23;46.55;100366.38;4824243;29;20069;-81
2022/03/10 05:55:15;;;;;;;9.15;4.88;;;;;;;-3.09;46.39;100374.09;4808228;29;20054;-82
2022/03/10 05:57:41;;;;;;;9.25;4.63;;;;;;;-2.85;46.01;100368.69;4792618;29;20149;-83
2022/03/10 06:00:09;;;;;;;8.88;5.75;;;;;;;-2.72;45.84;100378.13;4792980;29;20145;-81
2022/03/10 06:02:41;;;;;;;10.48;5.05;;;;;;;-2.71;45.74;100392.97;4827179;29;20062;-83
2022/03/10 06:05:07;;;;;;;8.52;5.10;;;;;;;-3.04;44.84;100388.03;4829214;29;20114;-82
2022/03/10 06:07:34;;;;;;;8.77;5.32;;;;;;;-3.41;46.06;100393.53;4828845;29;20057;-81
2022/03/10 06:10:01;;;;;;;12.20;5.22;;;;;;;-3.28;46.44;100368.16;4813561;29;20058;-82
2022/03/10 06:12:30;;;;;;;10.85;5.32;;;;;;;-3.40;45.87;100381.31;4814063;29;20058;-82
2022/03/10 06:14:58;;;;;;;7.40;5.03;;;;;;;-3.15;47.05;100398.56;4813472;29;20065;-82
2022/03/10 06:17:24;;;;;;;13.35;5.32;;;;;;;-2.90;46.06;100396.63;4798293;29;20050;-82
2022/03/10 06:19:50;;;;;;;14.38;5.35;;;;;;;-2.77;46.09;100387.78;4798844;29;20498;-82
2022/03/10 06:22:21;;;;;;;7.50;4.93;;;;;;;-2.52;45.49;100390.16;4798754;29;20082;-83
2022/03/10 06:24:47;;;;;;;49.63;28.88;;;;;;;-2.20;45.61;100380.22;4798994;29;20097;-82
2022/03/10 06:27:14;;;;;;;11.18;5.28;;;;;;;-2.06;44.69;100381.81;4829830;29;20081;-83
2022/03/10 06:29:41;;;;;;;7.45;4.90;;;;;;;-1.89;44.49;100379.84;4798526;29;20090;-83
2022/03/10 06:32:07;;;;;;;10.43;5.32;;;;;;;-1.68;43.82;100383.09;4814258;29;20123;-83
2022/03/10 06:34:33;;;;;;;9.68;5.88;;;;;;;-1.58;43.66;100379.44;4813852;29;20062;-84
2022/03/10 06:36:59;;;;;;;7.15;5.00;;;;;;;-1.57;44.17;100382.06;4813880;29;20145;-83
2022/03/10 06:39:26;;;;;;;7.55;4.88;;;;;;;-1.20;43.60;100388.50;4828749;29;20145;-82
2022/03/10 06:41:52;;;;;;;9.13;5.70;;;;;;;-1.01;43.73;100387.34;4813710;29;20065;-83
2022/03/10 06:44:17;;;;;;;7.45;5.03;;;;;;;-0.88;42.99;100378.34;4813280;29;20058;-83
2022/03/10 06:46:43;;;;;;;9.57;5.25;;;;;;;-0.71;42.65;100377.19;4813228;29;20097;-83
2022/03/10 06:49:09;;;;;;;11.65;5.63;;;;;;;-0.71;42.46;100379.81;4813573;29;20460;-83
2022/03/10 06:51:35;;;;;;;12.32;5.50;;;;;;;-0.65;42.11;100379.72;4813989;29;20149;-82
2022/03/10 06:54:01;;;;;;;9.50;4.78;;;;;;;-1.07;41.22;100371.69;4830365;29;20064;-81
2022/03/10 06:56:27;;;;;;;9.63;4.45;;;;;;;-2.05;42.88;100373.06;4814080;29;20054;-83
2022/03/10 06:58:53;;;;;;;8.63;5.07;;;;;;;-1.87;43.49;100372.84;4825302;29;20058;-82
2022/03/10 07:01:20;;;;;;;10.88;4.95;;;;;;;-1.34;43.73;100379.09;4843633;29;20595;-84
2022/03/10 07:03:46;;;;;;;8.70;5.20;;;;;;;-0.90;42.73;100368.75;4830752;29;20417;-81
2022/03/10 07:06:12;;;;;;;8.48;4.32;;;;;;;-0.80;41.77;100365.09;4813643;29;20058;-82
2022/03/10 07:08:38;;;;;;;9.07;5.20;;;;;;;-1.16;41.74;100374.47;4829793;29;20066;-81
2022/03/10 07:11:04;;;;;;;6.00;4.38;;;;;;;-1.26;42.60;100371.97;4798110;29;20419;-83
2022/03/10 07:13:30;;;;;;;6.75;4.25;;;;;;;-1.41;42.75;100372.19;4828713;29;20062;-83
2022/03/10 07:15:56;;;;;;;7.15;4.50;;;;;;;-1.60;43.12;100373.34;4826894;29;20245;-83
2022/03/10 07:18:22;;;;;;;10.05;5.15;;;;;;;-1.13;43.37;100372.66;4810552;29;20062;-82
2022/03/10 07:20:48;;;;;;;7.32;4.72;;;;;;;-0.60;42.58;100375.25;4825273;29;20452;-83
2022/03/10 07:23:14;;;;;;;9.23;4.57;;;;;;;-0.34;42.33;100367.78;4795008;29;20062;-82
2022/03/10 07:25:42;;;;;;;8.55;5.05;;;;;;;-0.29;41.71;100375.56;4809813;29;20065;-82
2022/03/10 07:28:09;;;;;;;7.10;3.95;;;;;;;-0.45;40.93;100369.75;4826188;29;20101;-81
2022/03/10 07:30:35;;;;;;;8.25;5.03;;;;;;;-0.39;42.20;100377.47;4826126;29;20141;-81
2022/03/10 07:33:01;;;;;;;9.57;4.93;;;;;;;0.04;41.91;100362.63;4826095;29;20125;-82
2022/03/10 07:35:27;;;;;;;8.70;5.05;;;;;;;0.07;40.12;100376.56;4826114;29;20058;-82
2022/03/10 07:37:55;;;;;;;9.50;4.93;;;;;;;-0.26;40.61;100371.13;4809828;29;20054;-82
2022/03/10 07:40:23;;;;;;;9.30;4.97;;;;;;;0.01;40.46;100366.19;4809740;29;20054;-81
2022/03/10 07:42:48;;;;;;;9.18;5.57;;;;;;;0.58;40.85;100364.97;4794625;29;20153;-81
2022/03/10 07:45:14;;;;;;;9.25;5.82;;;;;;;0.95;40.51;100357.94;4810033;29;20093;-82
2022/03/10 07:47:40;;;;;;;8.25;5.00;;;;;;;1.15;39.43;100354.78;4809891;29;20050;-82
2022/03/10 07:50:07;;;;;;;11.20;5.65;;;;;;;1.59;38.19;100359.81;4809923;29;20172;-83
2022/03/10 07:52:33;;;;;;;7.43;5.20;;;;;;;1.97;37.29;100366.66;4794393;29;20062;-83
2022/03/10 07:54:59;;;;;;;6.75;5.20;;;;;;;2.36;36.73;100369.03;4826239;29;20169;-83
2022/03/10 07:57:25;;;;;;;5.70;4.32;;;;;;;2.56;36.42;100365.81;4794403;29;20073;-83
2022/03/10 07:59:52;;;;;;;11.30;4.75;;;;;;;2.50;35.74;100366.00;4809598;29;20054;-82
2022/03/10 08:02:19;;;;;;;14.32;5.47;;;;;;;2.63;34.92;100368.22;4826033;29;20065;-83
2022/03/10 08:04:45;;;;;;;11.43;4.65;;;;;;;2.91;35.51;100365.56;4825787;29;20140;-83
2022/03/10 08:07:16;;;;;;;9.02;4.50;;;;;;;3.35;35.23;100357.06;4825638;29;20150;-82
2022/03/10 08:09:42;;;;;;;6.45;4.65;;;;;;;3.62;34.89;100353.47;4812489;29;20061;-82
2022/03/10 08:12:08;;;;;;;5.53;4.18;;;;;;;3.91;34.00;100356.81;4830025;29;20137;-82
2022/03/10 08:14:34;;;;;;;8.68;4.65;;;;;;;4.21;33.67;100348.66;4815504;29;20519;-83
2022/03/10 08:17:00;;;;;;;6.03;4.45;;;;;;;4.34;32.85;100339.34;4795519;29;20057;-82
2022/03/10 08:19:26;;;;;;;8.15;5.00;;;;;;;4.38;32.44;100336.53;4796644;29;20523;-85
2022/03/10 08:21:52;;;;;;;7.55;4.93;;;;;;;4.38;32.32;100323.28;4827051;29;20058;-83
2022/03/10 08:24:18;;;;;;;9.50;4.75;;;;;;;4.49;31.65;100332.59;4825808;29;20089;-82
2022/03/10 08:26:44;;;;;;;7.38;4.95;;;;;;;4.30;32.44;100329.81;4805265;29;20074;-83
2022/03/10 08:29:09;;;;;;;6.53;4.40;;;;;;;4.60;31.93;100328.59;4807308;29;20058;-83
2022/03/10 08:31:35;;;;;;;5.90;4.45;;;;;;;4.57;32.52;100319.94;4806031;29;20065;-83
2022/03/10 08:34:01;;;;;;;6.97;4.38;;;;;;;4.99;32.07;100327.06;4821213;29;20055;-84
2022/03/10 08:36:27;;;;;;;5.00;4.28;;;;;;;5.17;31.38;100326.28;4806951;29;20069;-83
2022/03/10 08:38:53;;;;;;;8.00;4.00;;;;;;;5.15;30.77;100321.97;4807096;29;20067;-83
2022/03/10 08:41:19;;;;;;;6.57;4.38;;;;;;;5.04;31.04;100325.94;4805701;29;20058;-83
2022/03/10 08:43:45;;;;;;;7.07;4.50;;;;;;;4.46;31.62;100328.28;4805753;29;20054;-83
2022/03/10 08:46:10;;;;;;;7.43;3.90;;;;;;;4.90;31.66;100323.00;4807094;29;20150;-82
2022/03/10 08:48:39;;;;;;;9.32;4.68;;;;;;;5.33;30.59;100327.34;4805608;29;20047;-82
2022/03/10 08:51:04;;;;;;;5.95;4.10;;;;;;;5.15;30.53;100322.81;4805873;29;20530;-83
2022/03/10 08:53:31;;;;;;;10.70;4.43;;;;;;;5.13;30.31;100329.13;4806548;29;20140;-82
2022/03/10 08:55:58;;;;;;;6.18;4.13;;;;;;;5.42;30.88;100342.03;4806625;29;20090;-82
2022/03/10 08:58:24;;;;;;;9.45;4.35;;;;;;;5.77;31.07;100331.66;4820529;29;20096;-82
2022/03/10 09:00:51;;;;;;;8.18;4.72;;;;;;;5.88;29.66;100332.03;4807055;29;20073;-80
2022/03/10 09:03:17;;;;;;;9.90;4.40;;;;;;;5.71;29.61;100326.63;4805980;29;20059;-89
2022/03/10 09:05:44;;;;;;;9.52;4.30;;;;;;;5.59;29.97;100334.19;4806347;29;20572;-85
2022/03/10 09:08:10;;;;;;;8.13;4.72;;;;;;;5.69;29.71;100333.81;4806879;29;20063;-83
2022/03/10 09:10:37;;;;;;;8.82;4.28;;;;;;;5.82;29.58;100327.00;4790475;29;20087;-83
2022/03/10 09:13:04;;;;;;;6.53;4.20;;;;;;;5.54;29.60;100322.94;4805246;29;20055;-82
2022/03/10 09:15:31;;;;;;;8.07;4.63;;;;;;;5.66;30.00;100328.63;4805004;29;20146;-83
2022/03/10 09:17:57;;;;;;;9.13;4.28;;;;;;;5.94;29.86;100323.84;4806085;29;20065;-82
2022/03/10 09:20:23;;;;;;;15.13;4.45;;;;;;;6.05;29.52;100320.69;4805221;29;20146;-84
2022/03/10 09:22:49;;;;;;;8.25;5.00;;;;;;;5.85;30.04;100318.91;4805125;29;20054;-83
2022/03/10 09:25:15;;;;;;;7.68;4.70;;;;;;;5.94;29.92;100318.53;4820638;29;20069;-83
2022/03/10 09:27:42;;;;;;;10.68;4.03;;;;;;;6.02;29.71;100303.13;4804923;29;20106;-82
2022/03/10 09:30:10;;;;;;;11.65;4.65;;;;;;;6.02;29.18;100311.09;4805209;29;20062;-82
2022/03/10 09:32:38;;;;;;;7.80;4.90;;;;;;;6.33;29.23;100309.66;4806193;29;20058;-82
2022/03/10 09:35:06;;;;;;;12.38;6.25;;;;;;;6.22;29.58;100306.66;4775107;29;20082;-81
2022/03/10 09:37:32;;;;;;;17.60;6.83;;;;;;;5.58;30.77;100316.56;4819936;29;20055;-83
2022/03/10 09:39:58;;;;;;;13.88;6.53;;;;;;;5.08;31.11;100301.03;4806227;29;20058;-84
2022/03/10 09:42:30;;;;;;;16.92;7.45;;;;;;;5.01;32.04;100307.53;4806558;29;20141;-83
2022/03/10 09:45:01;;;;;;;10.55;6.43;;;;;;;4.79;32.20;100304.03;4806343;29;20054;-82
2022/03/10 09:47:29;;;;;;;12.40;5.30;;;;;;;4.45;31.94;100300.09;4806283;29;20065;-81
2022/03/10 09:49:55;;;;;;;16.00;6.68;;;;;;;3.79;33.35;100310.53;4806084;29;20078;-83
2022/03/10 09:52:22;;;;;;;13.90;6.55;;;;;;;3.83;33.29;100300.69;4806352;29;20105;-83
2022/03/10 09:54:48;;;;;;;22.35;6.93;;;;;;;3.31;34.29;100305.22;4805876;29;20059;-83
2022/03/10 09:57:19;;;;;;;21.10;7.20;;;;;;;2.90;35.36;100304.88;4808255;29;20086;-83
2022/03/10 09:59:48;;;;;;;17.58;7.68;;;;;;;3.24;35.07;100301.09;4821920;29;20495;-81
2022/03/10 10:02:14;;;;;;;20.45;7.40;;;;;;;3.58;35.01;100298.13;4808641;29;20533;-82
2022/03/10 10:04:41;;;;;;;19.02;9.75;;;;;;;3.46;34.96;100301.16;4807956;29;20149;-83
2022/03/10 10:07:08;;;;;;;17.25;7.30;;;;;;;2.71;35.84;100301.09;4807332;29;20684;-82
2022/03/10 10:09:51;;;;;;;22.55;7.03;;;;;;;2.75;35.85;100302.75;4821006;29;20058;-83
2022/03/10 10:12:18;;;;;;;17.20;6.38;;;;;;;2.40;36.11;100304.69;4812492;29;20142;-83
2022/03/10 10:14:47;;;;;;;14.25;6.85;;;;;;;2.59;36.48;100303.19;4814507;29;20477;-84
2022/03/10 10:17:14;;;;;;;12.93;6.63;;;;;;;2.90;35.98;100299.59;4796229;29;20097;-82
2022/03/10 10:19:41;;;;;;;15.98;7.03;;;;;;;2.52;36.92;100291.16;4810648;29;20066;-85
2022/03/10 10:22:20;;;;;;;18.88;8.10;;;;;;;2.46;36.90;100301.88;4810525;29;20120;-83
2022/03/10 10:24:52;;;;;;;13.20;7.10;;;;;;;2.51;36.97;100299.09;4806390;29;20067;-81
2022/03/10 10:27:25;;;;;;;19.60;6.90;;;;;;;2.37;37.24;100297.78;4819821;29;20070;-82
2022/03/10 10:29:54;;;;;;;8.85;5.28;;;;;;;2.83;35.78;100301.56;4806315;29;20058;-83
2022/03/10 10:32:46;;;;;;;9.63;5.80;;;;;;;2.90;35.44;100311.00;4804915;29;20046;-82
2022/03/10 10:35:20;;;;;;;11.43;5.35;;;;;;;2.49;36.58;100300.94;4789465;29;20473;-84
2022/03/10 10:37:53;;;;;;;15.63;6.53;;;;;;;2.59;37.04;100303.19;4819858;29;20047;-82
2022/03/10 10:40:24;;;;;;;11.48;7.50;;;;;;;3.02;36.33;100303.59;4806382;29;20054;-82
2022/03/10 10:42:50;;;;;;;17.40;7.55;;;;;;;2.81;36.35;100291.97;4806214;29;20108;-82
2022/03/10 10:45:28;;;;;;;13.73;6.05;;;;;;;2.86;36.80;100296.19;4805784;29;20065;-82
2022/03/10 10:48:12;;;;;;;16.70;7.45;;;;;;;3.12;36.19;100300.59;4810373;29;20054;-82
2022/03/10 10:50:46;;;;;;;12.98;6.95;;;;;;;3.46;35.99;100296.78;4829373;29;20069;-82
2022/03/10 10:53:31;;;;;;;27.63;7.20;;;;;;;3.74;35.80;100301.06;4820414;29;20067;-87
2022/03/10 10:55:57;;;;;;;18.42;7.63;;;;;;;4.03;35.33;100281.47;4812690;29;20538;-87
2022/03/10 10:58:25;;;;;;;15.32;7.00;;;;;;;3.69;35.64;100276.56;4828543;29;20130;-81
2022/03/10 11:00:51;;;;;;;11.48;6.55;;;;;;;4.27;34.75;100269.91;4811830;29;20067;-86
2022/03/10 11:03:20;;;;;;;19.92;6.78;;;;;;;4.37;34.97;100276.56;4827355;29;20066;-92
2022/03/10 11:05:51;;;;;;;11.73;6.78;;;;;;;3.84;35.20;100270.72;4825957;29;20054;-85
2022/03/10 11:08:28;;;;;;;15.52;6.18;;;;;;;3.67;35.36;100267.81;4827340;29;20062;-90
2022/03/10 11:10:54;;;;;;;11.48;5.70;;;;;;;3.73;35.52;100272.91;4811345;29;20518;-83
2022/03/10 11:13:23;;;;;;;15.32;6.22;;;;;;;4.05;35.37;100280.47;4815155;29;20062;-85
2022/03/10 11:15:53;;;;;;;;;;;;;;;3.64;35.48;100282.88;4830294;29;20426;-90
2022/03/10 11:18:22;;;;;;;10.70;6.65;;;;;;;3.44;36.31;100280.09;4825367;29;19932;-92
2022/03/10 11:20:51;;;;;;;13.43;6.30;;;;;;;3.86;35.66;100279.44;4825466;29;20058;-80
2022/03/10 11:23:49;;;;;;;12.07;6.50;;;;;;;4.49;34.58;100271.72;4809964;29;20331;-83
2022/03/10 11:26:20;;;;;;;15.30;6.15;;;;;;;4.56;34.00;100263.47;4825547;29;20513;-80